sensor_id;sensor_type;location;lat;lon;timestamp;pressure;altitude;pressure_sealevel;temperature;humidity
26178;BME280;13924;47.670;10.310;2023-05-11T00:00:42;93760;;;7.7;100.0
26178;BME280;13924;47.670;10.310;2023-05-11T00:15:46;93760;;;7.7;100.0
26178;BME280;13924;47.670;10.310;2023-05-11T00:30:44;93730;;;7.3;100.0
26178;BME280;13924;47.670;10.310;2023-05-11T00:45:44;93730;;;7.3;100.0
26178;BME280;13924;47.670;10.310;2023-05-11T01:00:45;93720;;;7.0;100.0
26178;BME280;13924;47.670;10.310;2023-05-11T01:01:27;93710;;;7.1;100.0
26178;BME280;13924;47.670;10.310;2023-05-11T01:15:51;93710;;;7.1;100.0
26178;BME280;13924;47.670;10.310;2023-05-11T01:30:47;93720;;;7.0;100.0
26178;BME280;13924;47.670;10.310;2023-05-11T01:45:48;93730;;;6.9;100.0
26178;BME280;13924;47.670;10.310;2023-05-11T02:00:48;93740;;;6.9;100.0
26178;BME280;13924;47.670;10.310;2023-05-11T02:15:55;93730;;;6.8;100.0
26178;BME280;13924;47.670;10.310;2023-05-11T02:30:53;93710;;;6.8;100.0
26178;BME280;13924;47.670;10.310;2023-05-11T02:45:52;93730;;;6.7;100.0
26178;BME280;13924;47.670;10.310;2023-05-11T03:00:51;93710;;;6.8;100.0
26178;BME280;13924;47.670;10.310;2023-05-11T03:15:51;93710;;;6.6;100.0
26178;BME280;13924;47.670;10.310;2023-05-11T03:30:52;93710;;;6.7;100.0
26178;BME280;13924;47.670;10.310;2023-05-11T03:45:53;93690;;;6.6;100.0
26178;BME280;13924;47.670;10.310;2023-05-11T03:57:24;93690;;;6.6;100.0
26178;BME280;13924;47.670;10.310;2023-05-11T04:12:25;93670;;;6.6;100.0
26178;BME280;13924;47.670;10.310;2023-05-11T04:27:26;93680;;;6.4;100.0
26178;BME280;13924;47.670;10.310;2023-05-11T04:42:29;93690;;;6.5;100.0
26178;BME280;13924;47.670;10.310;2023-05-11T04:57:34;93680;;;6.6;100.0
26178;BME280;13924;47.670;10.310;2023-05-11T05:12:28;93680;;;6.7;100.0
26178;BME280;13924;47.670;10.310;2023-05-11T05:27:29;93690;;;6.5;100.0
26178;BME280;13924;47.670;10.310;2023-05-11T05:57:30;93700;;;6.8;100.0
26178;BME280;13924;47.670;10.310;2023-05-11T06:12:32;93700;;;6.8;100.0
26178;BME280;13924;47.670;10.310;2023-05-11T06:27:33;93700;;;6.7;100.0
26178;BME280;13924;47.670;10.310;2023-05-11T06:42:58;93680;;;6.8;100.0
26178;BME280;13924;47.670;10.310;2023-05-11T06:58:13;93690;;;7.0;100.0
26178;BME280;13924;47.670;10.310;2023-05-11T07:27:38;93680;;;7.2;100.0
26178;BME280;13924;47.670;10.310;2023-05-11T07:43:09;93690;;;7.3;100.0
26178;BME280;13924;47.670;10.310;2023-05-11T07:57:50;93690;;;7.5;100.0
26178;BME280;13924;47.670;10.310;2023-05-11T08:12:43;93690;;;7.7;100.0
26178;BME280;13924;47.670;10.310;2023-05-11T08:27:44;93670;;;7.8;100.0
26178;BME280;13924;47.670;10.310;2023-05-11T09:10:32;93680;;;8.5;100.0
26178;BME280;13924;47.670;10.310;2023-05-11T09:27:53;93680;;;8.5;100.0
26178;BME280;13924;47.670;10.310;2023-05-11T09:43:16;93680;;;8.9;100.0
26178;BME280;13924;47.670;10.310;2023-05-11T10:43:06;93440;;;9.4;100.0
26178;BME280;13924;47.670;10.310;2023-05-11T10:58:04;93350;;;9.9;100.0
26178;BME280;13924;47.670;10.310;2023-05-11T11:13:01;93380;;;10.2;100.0
26178;BME280;13924;47.670;10.310;2023-05-11T11:27:55;93210;;;10.3;100.0
26178;BME280;13924;47.670;10.310;2023-05-11T11:42:47;93080;;;10.6;100.0
26178;BME280;13924;47.670;10.310;2023-05-11T11:57:46;93050;;;11.1;100.0
26178;BME280;13924;47.670;10.310;2023-05-11T12:12:52;93080;;;11.1;100.0
26178;BME280;13924;47.670;10.310;2023-05-11T12:27:49;93380;;;10.6;100.0
26178;BME280;13924;47.670;10.310;2023-05-11T12:58:18;93380;;;10.6;100.0
26178;BME280;13924;47.670;10.310;2023-05-11T13:28:19;93380;;;11.0;100.0
26178;BME280;13924;47.670;10.310;2023-05-11T13:42:55;93300;;;11.6;100.0
26178;BME280;13924;47.670;10.310;2023-05-11T14:24:45;93120;;;11.9;100.0
26178;BME280;13924;47.670;10.310;2023-05-11T15:58:24;93120;;;12.1;100.0
26178;BME280;13924;47.670;10.310;2023-05-11T16:13:00;93260;;;11.3;100.0
26178;BME280;13924;47.670;10.310;2023-05-11T16:28:09;93310;;;10.6;100.0
26178;BME280;13924;47.670;10.310;2023-05-11T16:43:00;93380;;;10.4;100.0
26178;BME280;13924;47.670;10.310;2023-05-11T16:57:59;93290;;;10.4;100.0
26178;BME280;13924;47.670;10.310;2023-05-11T17:12:59;93330;;;10.5;100.0
26178;BME280;13924;47.670;10.310;2023-05-11T17:28:12;93330;;;10.5;100.0
26178;BME280;13924;47.670;10.310;2023-05-11T17:43:04;93340;;;10.4;100.0
26178;BME280;13924;47.670;10.310;2023-05-11T17:58:16;93310;;;10.2;100.0
26178;BME280;13924;47.670;10.310;2023-05-11T18:28:05;93310;;;10.2;100.0
26178;BME280;13924;47.670;10.310;2023-05-11T18:43:07;93260;;;10.1;100.0
26178;BME280;13924;47.670;10.310;2023-05-11T18:58:06;93230;;;9.9;100.0
26178;BME280;13924;47.670;10.310;2023-05-11T19:13:07;93260;;;9.8;100.0
26178;BME280;13924;47.670;10.310;2023-05-11T19:28:06;93360;;;9.6;100.0
26178;BME280;13924;47.670;10.310;2023-05-11T19:43:07;93370;;;9.5;100.0
26178;BME280;13924;47.670;10.310;2023-05-11T19:58:19;93370;;;9.5;100.0
26178;BME280;13924;47.670;10.310;2023-05-11T20:13:09;93370;;;9.6;100.0
26178;BME280;13924;47.670;10.310;2023-05-11T20:43:09;93470;;;9.5;100.0
26178;BME280;13924;47.670;10.310;2023-05-11T20:58:16;93470;;;9.5;100.0
26178;BME280;13924;47.670;10.310;2023-05-11T21:13:10;93480;;;9.5;100.0
26178;BME280;13924;47.670;10.310;2023-05-11T21:28:10;93500;;;9.3;100.0
26178;BME280;13924;47.670;10.310;2023-05-11T21:43:11;93470;;;9.0;100.0
26178;BME280;13924;47.670;10.310;2023-05-11T21:58:39;93470;;;9.0;100.0
26178;BME280;13924;47.670;10.310;2023-05-11T22:00:37;93510;;;8.8;100.0
26178;BME280;13924;47.670;10.310;2023-05-11T22:15:35;93590;;;8.5;100.0
26178;BME280;13924;47.670;10.310;2023-05-11T22:30:36;93540;;;8.4;100.0
26178;BME280;13924;47.670;10.310;2023-05-11T22:45:39;93540;;;8.4;100.0
26178;BME280;13924;47.670;10.310;2023-05-11T23:00:37;93580;;;8.7;100.0
26178;BME280;13924;47.670;10.310;2023-05-11T23:30:40;93580;;;8.7;100.0
26178;BME280;13924;47.670;10.310;2023-05-11T23:45:39;93470;;;8.2;100.0
